createdAt,value
2017-10-10T00:02:06.081Z,73.06
2017-10-10T00:04:33.686Z,72.79
2017-10-10T00:07:01.353Z,72.69
2017-10-10T00:09:29.016Z,72.54
2017-10-10T00:11:56.620Z,72.39
2017-10-10T00:14:24.281Z,72.51
2017-10-10T00:16:51.991Z,72.28
2017-10-10T00:19:19.599Z,71.49
2017-10-10T00:21:47.263Z,71.90
2017-10-10T00:24:14.992Z,70.40
2017-10-10T00:26:42.632Z,70.91
2017-10-10T00:29:10.237Z,70.85
2017-10-10T00:31:37.900Z,70.39
2017-10-10T00:34:05.572Z,70.18
2017-10-10T00:36:33.184Z,70.59
2017-10-10T00:39:00.899Z,70.11
2017-10-10T00:41:28.511Z,70.37
2017-10-10T00:43:56.180Z,70.03
2017-10-10T00:46:23.892Z,70.07
2017-10-10T00:48:51.616Z,70.10
2017-10-10T00:51:19.345Z,69.70
2017-10-10T00:53:47.003Z,70.46
2017-10-10T00:56:14.676Z,70.46
2017-10-10T00:58:42.285Z,70.46
2017-10-10T01:01:09.959Z,69.72
2017-10-10T01:03:37.575Z,70.19
2017-10-10T01:06:05.241Z,70.15
2017-10-10T01:08:32.956Z,70.65
2017-10-10T01:11:00.567Z,70.55
2017-10-10T01:13:28.199Z,71.15
2017-10-10T01:15:55.855Z,71.90
2017-10-10T01:18:23.476Z,72.03
2017-10-10T01:20:51.133Z,71.14
2017-10-10T01:23:18.821Z,70.73
2017-10-10T01:25:46.452Z,70.58
2017-10-10T01:28:14.076Z,70.58
2017-10-10T01:30:41.746Z,70.54
2017-10-10T01:33:09.421Z,70.94
2017-10-10T01:35:37.034Z,70.45
2017-10-10T01:38:04.688Z,71.25
2017-10-10T01:40:32.324Z,72.73
2017-10-10T01:42:59.950Z,72.96
2017-10-10T01:45:27.686Z,72.29
2017-10-10T01:47:55.305Z,72.21
2017-10-10T01:50:23.000Z,72.09
2017-10-10T01:52:50.707Z,71.16
2017-10-10T01:55:18.312Z,70.12
2017-10-10T01:57:45.993Z,69.71
2017-10-10T02:00:13.744Z,69.74
2017-10-10T02:02:41.355Z,70.00
2017-10-10T02:05:08.959Z,69.58
2017-10-10T02:07:36.603Z,70.25
2017-10-10T02:10:04.312Z,70.31
2017-10-10T02:12:31.967Z,70.00
2017-10-10T02:14:59.674Z,70.10
2017-10-10T02:17:27.283Z,69.48
2017-10-10T02:19:54.997Z,69.42
2017-10-10T02:22:22.664Z,69.43
2017-10-10T02:24:50.270Z,70.69
2017-10-10T02:27:17.875Z,69.99
2017-10-10T02:29:45.584Z,70.16
2017-10-10T02:32:13.244Z,69.65
2017-10-10T02:34:40.844Z,69.69
2017-10-10T02:37:08.499Z,69.38
2017-10-10T02:39:36.102Z,68.86
2017-10-10T02:42:03.817Z,69.11
2017-10-10T02:44:31.488Z,69.21
2017-10-10T02:46:59.087Z,68.16
2017-10-10T02:49:26.699Z,68.56
2017-10-10T02:51:54.440Z,68.94
2017-10-10T02:54:22.040Z,68.40
2017-10-10T02:56:49.640Z,68.19
2017-10-10T02:59:17.349Z,68.74
2017-10-10T03:01:45.024Z,68.89
2017-10-10T03:04:12.688Z,68.26
2017-10-10T03:06:40.392Z,68.94
2017-10-10T03:09:08.055Z,68.70
2017-10-10T03:11:35.781Z,68.81
2017-10-10T03:14:03.424Z,68.11
2017-10-10T03:16:31.040Z,68.31
2017-10-10T03:18:58.701Z,68.16
2017-10-10T03:21:26.364Z,67.84
2017-10-10T03:23:54.031Z,68.62
2017-10-10T03:26:21.642Z,67.25
2017-10-10T03:28:50.284Z,67.29
2017-10-10T03:31:17.904Z,67.69
2017-10-10T03:33:45.510Z,68.48
2017-10-10T03:36:13.271Z,68.97
2017-10-10T03:38:40.884Z,67.57
2017-10-10T03:41:08.479Z,66.67
2017-10-10T03:43:36.247Z,68.71
2017-10-10T03:46:03.847Z,70.82
2017-10-10T03:48:31.515Z,71.69
2017-10-10T03:50:59.225Z,72.50
2017-10-10T03:53:26.886Z,73.46
2017-10-10T03:55:54.487Z,73.57
2017-10-10T03:58:22.215Z,74.34
2017-10-10T04:00:49.888Z,75.48
2017-10-10T04:03:17.564Z,76.34
2017-10-10T04:05:45.243Z,76.77
2017-10-10T04:08:12.920Z,77.49
2017-10-10T04:10:40.598Z,78.17
2017-10-10T04:13:08.312Z,78.42
2017-10-10T04:15:35.976Z,78.51
2017-10-10T04:18:03.658Z,78.70
2017-10-10T04:20:31.316Z,79.05
2017-10-10T04:22:58.929Z,79.29
2017-10-10T04:25:26.528Z,79.21
2017-10-10T04:27:54.248Z,79.14
2017-10-10T04:30:21.911Z,79.65
2017-10-10T04:32:49.522Z,79.81
2017-10-10T04:35:17.264Z,79.26
2017-10-10T04:37:44.878Z,79.57
2017-10-10T04:40:12.499Z,80.89
2017-10-10T04:42:40.213Z,80.73
2017-10-10T04:45:07.876Z,80.61
2017-10-10T04:47:35.487Z,80.79
2017-10-10T04:50:03.148Z,80.62
2017-10-10T04:52:30.747Z,80.28
2017-10-10T04:54:58.356Z,79.82
2017-10-10T04:57:26.088Z,79.27
2017-10-10T04:59:53.766Z,78.54
2017-10-10T05:02:21.380Z,78.16
2017-10-10T05:04:49.103Z,77.37
2017-10-10T05:07:16.813Z,77.67
2017-10-10T05:09:44.492Z,77.28
2017-10-10T05:12:12.164Z,76.84
2017-10-10T05:14:39.839Z,76.87
2017-10-10T05:17:07.439Z,76.62
2017-10-10T05:19:35.099Z,76.24
2017-10-10T05:22:02.725Z,75.67
2017-10-10T05:24:30.338Z,75.47
2017-10-10T05:26:58.065Z,75.06
2017-10-10T05:29:25.735Z,74.57
2017-10-10T05:31:53.406Z,73.08
2017-10-10T05:34:21.058Z,72.74
2017-10-10T05:36:48.735Z,72.62
2017-10-10T05:39:16.351Z,71.83
2017-10-10T05:41:44.068Z,71.14
2017-10-10T05:44:11.687Z,71.07
2017-10-10T05:46:39.338Z,70.82
2017-10-10T05:49:06.995Z,69.34
2017-10-10T05:51:34.611Z,68.22
2017-10-10T05:54:02.281Z,67.52
2017-10-10T05:56:30.017Z,67.42
2017-10-10T05:58:57.686Z,67.89
2017-10-10T06:01:25.297Z,67.41
2017-10-10T06:03:53.060Z,66.43
2017-10-10T06:06:20.755Z,65.74
2017-10-10T06:08:48.362Z,63.99
2017-10-10T06:11:16.057Z,64.56
2017-10-10T06:13:43.727Z,62.35
2017-10-10T06:16:11.395Z,60.92
2017-10-10T06:18:39.059Z,61.09
2017-10-10T06:21:06.679Z,62.43
2017-10-10T06:23:34.340Z,60.46
2017-10-10T06:26:02.096Z,59.03
2017-10-10T06:28:29.759Z,59.62
2017-10-10T06:30:57.441Z,59.70
2017-10-10T06:33:25.153Z,60.68
2017-10-10T06:35:52.759Z,60.69
2017-10-10T06:38:20.436Z,59.31
2017-10-10T06:40:48.104Z,61.63
2017-10-10T06:43:15.711Z,62.96
2017-10-10T06:45:43.324Z,64.80
2017-10-10T06:48:11.037Z,63.82
2017-10-10T06:50:38.655Z,64.83
2017-10-10T06:53:06.269Z,65.61
2017-10-10T06:55:33.996Z,65.48
2017-10-10T06:58:01.612Z,65.01
2017-10-10T07:00:29.252Z,66.15
2017-10-10T07:02:56.911Z,64.33
2017-10-10T07:05:24.527Z,64.75
2017-10-10T07:07:52.189Z,65.01
2017-10-10T07:10:19.848Z,64.64
2017-10-10T07:12:47.456Z,63.70
2017-10-10T07:15:15.135Z,63.03
2017-10-10T07:17:42.831Z,62.99
2017-10-10T07:20:10.449Z,62.61
2017-10-10T07:22:38.059Z,62.00
2017-10-10T07:25:05.777Z,61.03
2017-10-10T07:27:33.384Z,60.64
2017-10-10T07:30:00.988Z,61.30
2017-10-10T07:32:28.663Z,61.39
2017-10-10T07:34:56.271Z,61.34
2017-10-10T07:37:23.940Z,61.82
2017-10-10T07:39:51.656Z,59.76
2017-10-10T07:42:19.325Z,59.62
2017-10-10T07:44:46.930Z,58.89
2017-10-10T07:47:14.579Z,59.69
2017-10-10T07:49:42.237Z,59.86
2017-10-10T07:52:09.873Z,57.80
2017-10-10T07:54:37.527Z,59.36
2017-10-10T07:57:05.194Z,58.89
2017-10-10T07:59:32.853Z,58.36
2017-10-10T08:02:00.503Z,58.59
2017-10-10T08:04:28.112Z,57.39
2017-10-10T08:06:55.719Z,59.50
2017-10-10T08:09:23.450Z,58.08
2017-10-10T08:11:51.116Z,57.89
2017-10-10T08:14:18.724Z,58.10
2017-10-10T08:16:46.444Z,58.44
2017-10-10T08:19:14.116Z,56.50
2017-10-10T08:21:41.784Z,56.94
2017-10-10T08:24:09.431Z,57.63
2017-10-10T08:26:37.039Z,55.75
2017-10-10T08:29:04.644Z,55.68
2017-10-10T08:31:32.361Z,57.39
2017-10-10T08:34:00.081Z,55.06
2017-10-10T08:36:27.752Z,54.73
2017-10-10T08:38:55.475Z,54.86
2017-10-10T08:41:23.082Z,53.87
2017-10-10T08:43:50.808Z,55.18
2017-10-10T08:46:18.521Z,53.54
2017-10-10T08:48:46.194Z,53.06
2017-10-10T08:51:13.869Z,52.18
2017-10-10T08:53:41.524Z,52.00
2017-10-10T08:56:09.190Z,52.56
2017-10-10T08:58:36.808Z,51.85
2017-10-10T09:01:04.530Z,51.37
2017-10-10T09:03:32.205Z,51.13
2017-10-10T09:05:59.880Z,50.61
2017-10-10T09:08:27.538Z,50.45
2017-10-10T09:10:55.153Z,50.84
2017-10-10T09:13:22.812Z,50.07
2017-10-10T09:15:50.463Z,51.14
2017-10-10T09:18:18.071Z,51.65
2017-10-10T09:20:45.748Z,49.29
2017-10-10T09:23:13.452Z,49.34
2017-10-10T09:25:41.118Z,49.51
2017-10-10T09:28:08.799Z,49.06
2017-10-10T09:30:36.479Z,50.01
2017-10-10T09:33:04.083Z,49.05
2017-10-10T09:35:31.692Z,49.33
2017-10-10T09:37:59.344Z,49.34
2017-10-10T09:40:27.007Z,49.05
2017-10-10T09:42:54.609Z,49.85
2017-10-10T09:45:22.252Z,50.12
2017-10-10T09:47:49.865Z,50.02
2017-10-10T09:50:17.529Z,51.19
2017-10-10T09:52:45.191Z,50.25
2017-10-10T09:55:12.853Z,50.04
2017-10-10T09:57:40.456Z,49.35
2017-10-10T10:00:08.200Z,49.07
2017-10-10T10:02:35.800Z,48.76
2017-10-10T10:05:03.411Z,50.06
2017-10-10T10:07:31.124Z,49.32
2017-10-10T10:09:58.796Z,50.29
2017-10-10T10:12:26.459Z,49.60
2017-10-10T10:14:54.186Z,49.21
2017-10-10T10:17:21.876Z,49.84
2017-10-10T10:19:49.486Z,49.81
2017-10-10T10:22:17.303Z,49.08
2017-10-10T10:24:44.979Z,48.59
2017-10-10T10:27:12.641Z,48.19
2017-10-10T10:29:40.356Z,48.27
2017-10-10T10:32:08.021Z,47.69
2017-10-10T10:34:35.628Z,48.54
2017-10-10T10:37:03.271Z,47.08
2017-10-10T10:39:30.927Z,47.34
2017-10-10T10:41:58.594Z,45.71
2017-10-10T10:44:26.250Z,44.93
2017-10-10T10:46:53.859Z,43.95
2017-10-10T10:49:21.531Z,42.25
2017-10-10T10:51:49.247Z,42.58
2017-10-10T10:54:16.854Z,40.40
2017-10-10T10:56:44.464Z,40.10
2017-10-10T10:59:12.112Z,40.50
2017-10-10T11:01:39.728Z,39.62
2017-10-10T11:04:07.332Z,39.68
2017-10-10T11:06:35.055Z,42.04
2017-10-10T11:09:02.725Z,41.42
2017-10-10T11:11:30.345Z,42.65
2017-10-10T11:13:58.020Z,42.62
2017-10-10T11:16:25.685Z,41.71
2017-10-10T11:18:53.295Z,41.87
2017-10-10T11:21:20.948Z,41.42
2017-10-10T11:23:48.551Z,39.37
2017-10-10T11:26:16.160Z,38.99
2017-10-10T11:28:43.880Z,37.63
2017-10-10T11:31:11.480Z,37.87
2017-10-10T11:33:39.092Z,37.70
2017-10-10T11:36:06.802Z,37.31
2017-10-10T11:38:34.525Z,36.35
2017-10-10T11:41:02.196Z,34.96
2017-10-10T11:43:29.909Z,34.20
2017-10-10T11:45:57.582Z,31.89
2017-10-10T11:48:25.256Z,31.48
2017-10-10T11:50:52.999Z,30.73
2017-10-10T11:53:20.660Z,31.54
2017-10-10T11:55:48.337Z,30.85
2017-10-10T11:58:15.989Z,31.79
2017-10-10T12:00:43.602Z,30.98
2017-10-10T12:03:11.208Z,32.07
2017-10-10T12:05:38.860Z,33.62
2017-10-10T12:08:06.464Z,35.51
2017-10-10T12:10:34.074Z,38.50
2017-10-10T12:13:02.252Z,38.90
2017-10-10T12:15:29.924Z,40.17
2017-10-10T12:17:57.570Z,42.01
2017-10-10T12:20:25.219Z,42.64
2017-10-10T12:22:52.892Z,44.29
2017-10-10T12:25:20.499Z,45.08
2017-10-10T12:27:48.165Z,45.11
2017-10-10T12:30:15.835Z,45.27
2017-10-10T12:32:43.436Z,45.66
2017-10-10T12:35:11.179Z,46.35
2017-10-10T12:37:38.783Z,46.66
2017-10-10T12:40:06.388Z,48.04
2017-10-10T12:42:34.121Z,47.17
2017-10-10T12:45:01.789Z,47.75
2017-10-10T12:47:29.383Z,48.70
2017-10-10T12:49:57.038Z,48.88
2017-10-10T12:52:24.700Z,48.56
2017-10-10T12:54:52.361Z,48.69
2017-10-10T12:57:20.007Z,48.96
2017-10-10T12:59:47.716Z,49.46
2017-10-10T13:02:15.436Z,49.40
2017-10-10T13:04:43.184Z,50.55
2017-10-10T13:07:10.848Z,49.50
2017-10-10T13:09:38.451Z,48.78
2017-10-10T13:12:06.161Z,49.39
2017-10-10T13:14:33.827Z,49.72
2017-10-10T13:17:01.497Z,49.50
2017-10-10T13:19:29.224Z,50.01
2017-10-10T13:21:56.883Z,50.38
2017-10-10T13:24:24.607Z,50.18
2017-10-10T13:26:52.272Z,50.73
2017-10-10T13:29:19.875Z,51.30
2017-10-10T13:31:47.576Z,50.64
2017-10-10T13:34:15.231Z,51.18
2017-10-10T13:36:42.939Z,51.49
2017-10-10T13:39:10.566Z,51.65
2017-10-10T13:41:38.288Z,52.14
2017-10-10T13:44:05.955Z,51.59
2017-10-10T13:46:33.563Z,50.04
2017-10-10T13:49:01.272Z,50.33
2017-10-10T13:51:28.987Z,51.00
2017-10-10T13:53:56.651Z,51.31
2017-10-10T13:56:24.364Z,51.39
2017-10-10T13:58:51.972Z,51.42
2017-10-10T14:01:19.580Z,52.70
2017-10-10T14:03:47.237Z,52.38
2017-10-10T14:06:14.852Z,52.73
2017-10-10T14:08:42.513Z,52.70
2017-10-10T14:11:10.190Z,51.83
2017-10-10T14:13:37.856Z,52.29
2017-10-10T14:16:05.456Z,52.92
2017-10-10T14:18:33.211Z,53.23
2017-10-10T14:21:00.811Z,53.16
2017-10-10T14:23:28.432Z,53.41
2017-10-10T14:25:56.149Z,53.88
2017-10-10T14:28:23.776Z,53.99
2017-10-10T14:30:51.389Z,53.41
2017-10-10T14:33:19.035Z,54.27
2017-10-10T14:35:46.700Z,54.76
2017-10-10T14:38:14.302Z,54.88
2017-10-10T14:40:41.947Z,54.75
2017-10-10T14:43:09.547Z,54.27
2017-10-10T14:45:37.213Z,54.78
2017-10-10T14:48:04.875Z,56.02
2017-10-10T14:50:32.536Z,55.82
2017-10-10T14:53:00.139Z,55.53
2017-10-10T14:55:27.847Z,55.89
2017-10-10T14:57:55.458Z,56.01
2017-10-10T15:00:23.058Z,55.84
2017-10-10T15:02:50.764Z,56.47
2017-10-10T15:05:18.361Z,56.58
2017-10-10T15:07:45.975Z,57.13
2017-10-10T15:10:13.627Z,58.01
2017-10-10T15:12:41.296Z,57.51
2017-10-10T15:15:08.944Z,57.99
2017-10-10T15:17:36.719Z,57.64
2017-10-10T15:20:04.326Z,58.58
2017-10-10T15:22:31.935Z,59.49
2017-10-10T15:24:59.696Z,59.46
2017-10-10T15:27:27.319Z,59.73
2017-10-10T15:29:54.920Z,60.40
2017-10-10T15:32:22.643Z,61.14
2017-10-10T15:34:50.251Z,61.22
2017-10-10T15:37:17.859Z,62.12
2017-10-10T15:39:45.537Z,62.93
2017-10-10T15:42:13.200Z,63.88
2017-10-10T15:44:40.809Z,64.24
2017-10-10T15:47:08.494Z,65.00
2017-10-10T15:49:36.113Z,65.70
2017-10-10T15:52:03.793Z,67.00
2017-10-10T15:54:31.463Z,67.65
2017-10-10T15:56:59.075Z,68.19
2017-10-10T15:59:26.686Z,69.20
2017-10-10T16:01:54.355Z,69.84
2017-10-10T16:04:22.080Z,70.85
2017-10-10T16:06:49.745Z,71.33
2017-10-10T16:09:17.405Z,71.80
2017-10-10T16:11:45.074Z,72.60
2017-10-10T16:14:12.909Z,73.11
2017-10-10T16:16:40.579Z,73.55
2017-10-10T16:19:08.195Z,74.02
2017-10-10T16:21:35.810Z,74.77
2017-10-10T16:24:03.491Z,74.47
2017-10-10T16:26:31.173Z,74.41
2017-10-10T16:28:58.783Z,74.47
2017-10-10T16:31:26.462Z,74.47
2017-10-10T16:33:54.129Z,75.26
2017-10-10T16:36:21.739Z,75.34
2017-10-10T16:38:49.430Z,75.17
2017-10-10T16:41:17.043Z,75.63
2017-10-10T16:43:44.712Z,75.93
2017-10-10T16:46:12.367Z,75.75
2017-10-10T16:48:40.053Z,76.14
2017-10-10T16:51:07.698Z,76.24
2017-10-10T16:53:35.355Z,76.33
2017-10-10T16:56:02.970Z,76.76
2017-10-10T16:58:30.592Z,76.83
2017-10-10T17:00:58.411Z,77.29
2017-10-10T17:03:26.014Z,77.39
2017-10-10T17:05:53.732Z,77.28
2017-10-10T17:08:21.399Z,77.20
2017-10-10T17:10:49.011Z,77.29
2017-10-10T17:13:16.620Z,77.12
2017-10-10T17:15:44.331Z,77.49
2017-10-10T17:18:11.999Z,77.65
2017-10-10T17:20:39.607Z,77.42
2017-10-10T17:23:07.265Z,77.27
2017-10-10T17:25:34.880Z,77.03
2017-10-10T17:28:02.491Z,77.15
2017-10-10T17:30:30.279Z,77.66
2017-10-10T17:32:57.883Z,77.80
2017-10-10T17:35:25.507Z,78.43
2017-10-10T17:37:53.232Z,78.39
2017-10-10T17:40:20.902Z,79.01
2017-10-10T17:42:48.568Z,79.01
2017-10-10T17:45:16.794Z,78.77
2017-10-10T17:47:44.403Z,78.85
2017-10-10T17:50:12.010Z,79.30
2017-10-10T17:52:39.674Z,79.35
2017-10-10T17:55:07.341Z,79.63
2017-10-10T17:57:34.952Z,79.91
2017-10-10T18:00:02.646Z,79.81
2017-10-10T18:02:30.317Z,80.19
2017-10-10T18:04:58.044Z,80.14
2017-10-10T18:07:25.694Z,80.04
2017-10-10T18:09:53.295Z,80.07
2017-10-10T18:12:21.012Z,80.28
2017-10-10T18:14:48.664Z,80.18
2017-10-10T18:17:16.275Z,80.48
2017-10-10T18:19:43.997Z,80.67
2017-10-10T18:22:11.715Z,81.04
2017-10-10T18:24:39.332Z,81.14
2017-10-10T18:27:07.012Z,81.34
2017-10-10T18:29:34.672Z,81.28
2017-10-10T18:32:02.283Z,81.35
2017-10-10T18:34:29.891Z,81.18
2017-10-10T18:36:57.723Z,81.56
2017-10-10T18:39:25.408Z,81.29
2017-10-10T18:41:53.025Z,81.09
2017-10-10T18:44:20.689Z,81.49
2017-10-10T18:46:48.405Z,81.62
2017-10-10T18:49:16.034Z,81.54
2017-10-10T18:51:43.744Z,81.12
2017-10-10T18:54:11.408Z,81.29
2017-10-10T18:56:39.033Z,81.63
2017-10-10T18:59:06.679Z,81.93
2017-10-10T19:01:34.351Z,81.93
2017-10-10T19:04:02.027Z,82.03
2017-10-10T19:06:29.687Z,82.02
2017-10-10T19:08:57.352Z,82.47
2017-10-10T19:11:25.033Z,82.41
2017-10-10T19:13:52.752Z,82.60
2017-10-10T19:16:20.368Z,82.75
2017-10-10T19:18:47.987Z,82.59
2017-10-10T19:21:15.652Z,82.76
2017-10-10T19:23:43.271Z,82.97
2017-10-10T19:26:10.900Z,82.94
2017-10-10T19:28:38.616Z,82.78
2017-10-10T19:31:06.226Z,83.07
2017-10-10T19:33:33.855Z,82.77
2017-10-10T19:36:01.517Z,82.85
2017-10-10T19:38:29.131Z,82.79
2017-10-10T19:40:56.786Z,83.08
2017-10-10T19:43:24.536Z,83.25
2017-10-10T19:45:52.149Z,83.53
2017-10-10T19:48:19.821Z,83.73
2017-10-10T19:50:47.489Z,83.78
2017-10-10T19:53:15.104Z,83.94
2017-10-10T19:55:42.791Z,84.15
2017-10-10T19:58:10.460Z,84.28
2017-10-10T20:00:38.079Z,84.47
2017-10-10T20:03:05.690Z,84.58
2017-10-10T20:05:33.371Z,84.76
2017-10-10T20:08:00.993Z,84.89
2017-10-10T20:10:28.668Z,84.92
2017-10-10T20:12:56.359Z,84.88
2017-10-10T20:15:23.983Z,84.77
2017-10-10T20:17:51.591Z,84.81
2017-10-10T20:20:19.278Z,84.99
2017-10-10T20:22:46.896Z,84.89
2017-10-10T20:25:14.509Z,84.65
2017-10-10T20:27:42.246Z,84.56
2017-10-10T20:30:09.913Z,84.49
2017-10-10T20:32:37.518Z,84.46
2017-10-10T20:35:05.173Z,84.76
2017-10-10T20:37:32.785Z,85.04
2017-10-10T20:40:00.386Z,85.39
2017-10-10T20:42:28.098Z,85.54
2017-10-10T20:44:55.830Z,85.68
2017-10-10T20:47:23.498Z,85.59
2017-10-10T20:49:51.218Z,85.62
2017-10-10T20:52:18.815Z,85.75
2017-10-10T20:54:46.509Z,85.89
2017-10-10T20:57:14.163Z,86.04
2017-10-10T20:59:41.825Z,86.24
2017-10-10T21:02:09.485Z,86.35
2017-10-10T21:04:37.215Z,86.06
2017-10-10T21:07:04.893Z,85.70
2017-10-10T21:09:32.501Z,85.52
2017-10-10T21:12:00.269Z,85.62
2017-10-10T21:14:27.934Z,85.77
2017-10-10T21:16:55.546Z,85.96
2017-10-10T21:19:23.207Z,86.24
2017-10-10T21:21:50.875Z,86.20
2017-10-10T21:24:18.549Z,86.02
2017-10-10T21:26:46.257Z,86.20
2017-10-10T21:29:13.922Z,86.44
2017-10-10T21:31:41.536Z,86.27
2017-10-10T21:34:09.194Z,86.24
2017-10-10T21:36:36.864Z,85.89
2017-10-10T21:39:04.605Z,85.64
2017-10-10T21:41:32.297Z,85.29
2017-10-10T21:43:59.899Z,85.11
2017-10-10T21:46:27.564Z,84.97
2017-10-10T21:48:55.268Z,84.86
2017-10-10T21:51:22.873Z,85.00
2017-10-10T21:53:50.489Z,84.47
2017-10-10T21:56:18.146Z,84.06
2017-10-10T21:58:45.763Z,83.93
2017-10-10T22:01:13.384Z,84.35
2017-10-10T22:03:41.103Z,84.12
2017-10-10T22:06:08.771Z,83.59
2017-10-10T22:08:36.375Z,83.04
2017-10-10T22:11:04.096Z,83.28
2017-10-10T22:13:31.768Z,83.15
2017-10-10T22:15:59.431Z,83.34
2017-10-10T22:18:27.084Z,83.54
2017-10-10T22:20:54.695Z,83.61
2017-10-10T22:23:22.307Z,83.64
2017-10-10T22:25:49.964Z,83.99
2017-10-10T22:28:17.640Z,84.24
2017-10-10T22:30:45.242Z,84.23
2017-10-10T22:33:12.887Z,84.19
2017-10-10T22:35:40.498Z,84.63
2017-10-10T22:38:08.161Z,84.82
2017-10-10T22:40:35.820Z,84.92
2017-10-10T22:43:03.442Z,85.06
2017-10-10T22:45:31.056Z,85.06
2017-10-10T22:47:58.719Z,85.31
2017-10-10T22:50:26.337Z,85.59
2017-10-10T22:52:53.957Z,85.89
2017-10-10T22:55:21.628Z,86.21
2017-10-10T22:57:49.246Z,86.34
2017-10-10T23:00:16.917Z,86.60
2017-10-10T23:02:44.595Z,86.67
2017-10-10T23:05:12.321Z,86.89
2017-10-10T23:07:39.992Z,87.13
2017-10-10T23:10:07.651Z,87.37
2017-10-10T23:12:35.260Z,87.56
2017-10-10T23:15:02.878Z,87.59
2017-10-10T23:17:30.539Z,87.90
2017-10-10T23:19:58.152Z,88.16
2017-10-10T23:22:43.387Z,88.15
2017-10-10T23:25:11.056Z,87.78
2017-10-10T23:27:38.667Z,87.85
2017-10-10T23:30:06.315Z,87.98
2017-10-10T23:32:33.931Z,87.96
2017-10-10T23:35:01.546Z,88.12
2017-10-10T23:37:29.315Z,88.12
2017-10-10T23:39:56.923Z,88.41
2017-10-10T23:42:24.527Z,88.72
2017-10-10T23:44:52.183Z,88.88
2017-10-10T23:47:19.793Z,88.78
2017-10-10T23:49:47.460Z,88.84
2017-10-10T23:52:15.132Z,88.90
2017-10-10T23:54:42.740Z,88.97
2017-10-10T23:57:10.409Z,89.01
2017-10-10T23:59:38.063Z,89.05
